createdAt,value
2018-12-18T00:00:20.274Z,7.90
2018-12-18T00:02:48.016Z,6.37
2018-12-18T00:05:21.275Z,4.90
2018-12-18T00:07:48.772Z,9.40
2018-12-18T00:10:16.299Z,8.00
2018-12-18T00:12:43.805Z,5.17
2018-12-18T00:15:11.351Z,7.43
2018-12-18T00:17:38.863Z,5.00
2018-12-18T00:20:06.462Z,8.17
2018-12-18T00:22:33.979Z,7.90
2018-12-18T00:25:01.500Z,5.00
2018-12-18T00:27:29.020Z,7.20
2018-12-18T00:29:56.520Z,5.23
2018-12-18T00:32:24.404Z,4.33
2018-12-18T00:34:51.912Z,4.90
2018-12-18T00:37:19.534Z,2.90
2018-12-18T00:39:47.097Z,4.20
2018-12-18T00:42:14.602Z,4.85
2018-12-18T00:44:42.105Z,4.40
2018-12-18T00:47:09.608Z,5.40
2018-12-18T00:49:37.124Z,5.00
2018-12-18T00:52:04.649Z,4.63
2018-12-18T00:54:32.181Z,6.30
2018-12-18T00:56:59.699Z,5.83
2018-12-18T00:59:27.207Z,5.63
2018-12-18T01:01:59.787Z,4.40
2018-12-18T01:04:27.539Z,6.43
2018-12-18T01:06:55.228Z,3.90
2018-12-18T01:09:22.789Z,5.10
2018-12-18T01:11:50.299Z,4.07
2018-12-18T01:14:18.001Z,3.93
2018-12-18T01:16:45.499Z,4.67
2018-12-18T01:19:13.019Z,4.40
2018-12-18T01:21:40.531Z,6.03
2018-12-18T01:24:08.051Z,5.77
2018-12-18T01:26:35.553Z,7.90
2018-12-18T01:31:39.694Z,7.73
2018-12-18T01:34:07.237Z,7.43
2018-12-18T01:36:34.727Z,7.63
2018-12-18T01:39:02.301Z,5.70
2018-12-18T01:41:29.802Z,8.07
2018-12-18T01:43:57.392Z,9.00
2018-12-18T01:46:24.984Z,6.80
2018-12-18T01:48:52.478Z,7.77
2018-12-18T01:51:20.089Z,6.67
2018-12-18T01:53:47.612Z,9.40
2018-12-18T01:56:15.195Z,7.00
2018-12-18T01:58:42.702Z,14.03
2018-12-18T02:01:10.213Z,4.73
2018-12-18T02:03:37.724Z,9.20
2018-12-18T02:06:05.374Z,3.10
2018-12-18T02:08:32.885Z,5.53
2018-12-18T02:11:00.390Z,8.93
2018-12-18T02:13:27.904Z,9.50
2018-12-18T02:15:55.427Z,4.90
2018-12-18T02:18:22.918Z,6.43
2018-12-18T02:20:50.433Z,8.17
2018-12-18T02:23:18.154Z,9.53
2018-12-18T02:25:45.663Z,6.37
2018-12-18T02:28:13.168Z,5.60
2018-12-18T02:30:40.668Z,4.20
2018-12-18T02:33:08.160Z,5.63
2018-12-18T02:35:35.697Z,13.83
2018-12-18T02:38:03.305Z,6.93
2018-12-18T02:40:30.811Z,6.85
2018-12-18T02:42:58.332Z,5.97
2018-12-18T02:45:26.204Z,3.80
2018-12-18T02:47:53.771Z,4.27
2018-12-18T02:50:21.338Z,5.30
2018-12-18T02:52:48.901Z,5.57
2018-12-18T02:55:17.169Z,6.27
2018-12-18T02:57:44.679Z,3.97
2018-12-18T03:00:12.203Z,8.87
2018-12-18T03:02:39.973Z,3.50
2018-12-18T03:05:07.493Z,4.43
2018-12-18T03:07:35.003Z,2.83
2018-12-18T03:10:02.974Z,7.73
2018-12-18T03:12:30.489Z,4.90
2018-12-18T03:14:57.993Z,9.03
2018-12-18T03:17:25.583Z,6.40
2018-12-18T03:19:53.099Z,6.80
2018-12-18T03:22:20.834Z,3.57
2018-12-18T03:24:48.336Z,5.10
2018-12-18T03:27:15.852Z,5.40
2018-12-18T03:29:43.391Z,5.00
2018-12-18T03:32:11.875Z,3.00
2018-12-18T03:34:39.492Z,3.67
2018-12-18T03:37:07.000Z,4.53
2018-12-18T03:39:34.878Z,3.45
2018-12-18T03:42:02.444Z,7.20
2018-12-18T03:44:30.417Z,11.12
2018-12-18T03:46:57.984Z,13.13
2018-12-18T03:49:25.547Z,13.00
2018-12-18T03:51:53.079Z,14.67
2018-12-18T03:54:20.590Z,8.33
2018-12-18T03:56:48.158Z,6.40
2018-12-18T03:59:15.659Z,3.40
2018-12-18T04:01:43.169Z,4.42
2018-12-18T04:04:10.677Z,7.80
2018-12-18T04:06:38.219Z,5.37
2018-12-18T04:09:06.168Z,3.83
2018-12-18T04:11:35.799Z,5.30
2018-12-18T04:14:03.395Z,6.10
2018-12-18T04:16:31.012Z,5.63
2018-12-18T04:18:58.896Z,8.27
2018-12-18T04:21:26.454Z,5.72
2018-12-18T04:23:54.453Z,3.67
2018-12-18T04:26:21.982Z,3.80
2018-12-18T04:28:49.614Z,5.83
2018-12-18T04:31:17.319Z,5.33
2018-12-18T04:33:44.819Z,5.55
2018-12-18T04:36:12.641Z,4.10
2018-12-18T04:38:40.134Z,3.53
2018-12-18T04:41:07.972Z,3.63
2018-12-18T04:43:35.560Z,5.60
2018-12-18T04:46:03.091Z,6.50
2018-12-18T04:48:30.684Z,5.28
2018-12-18T04:50:58.369Z,5.33
2018-12-18T04:53:25.888Z,6.73
2018-12-18T04:55:53.394Z,5.20
2018-12-18T04:58:20.922Z,8.33
2018-12-18T05:00:48.454Z,5.80
2018-12-18T05:03:16.044Z,5.70
2018-12-18T05:05:43.594Z,2.73
2018-12-18T05:08:11.150Z,4.50
2018-12-18T05:10:38.679Z,4.40
2018-12-18T05:13:06.233Z,4.93
2018-12-18T05:15:33.756Z,4.10
2018-12-18T05:18:01.340Z,5.53
2018-12-18T05:20:28.859Z,6.70
2018-12-18T05:22:56.484Z,3.97
2018-12-18T05:25:24.052Z,5.93
2018-12-18T05:27:51.579Z,3.73
2018-12-18T05:30:19.372Z,5.35
2018-12-18T05:32:46.950Z,4.43
2018-12-18T05:35:15.169Z,5.90
2018-12-18T05:37:42.953Z,3.60
2018-12-18T05:40:10.561Z,7.37
2018-12-18T05:42:38.066Z,5.33
2018-12-18T05:45:05.913Z,4.10
2018-12-18T05:47:33.430Z,7.20
2018-12-18T05:50:00.956Z,4.20
2018-12-18T05:52:28.495Z,12.68
2018-12-18T05:54:56.007Z,8.67
2018-12-18T05:57:23.519Z,9.30
2018-12-18T05:59:51.088Z,5.93
2018-12-18T06:02:18.597Z,5.97
2018-12-18T06:04:46.131Z,6.60
2018-12-18T06:07:13.676Z,7.00
2018-12-18T06:09:41.198Z,8.57
2018-12-18T06:12:09.443Z,7.27
2018-12-18T06:14:36.948Z,8.67
2018-12-18T06:17:04.853Z,8.00
2018-12-18T06:19:32.479Z,11.20
2018-12-18T06:21:59.999Z,7.20
2018-12-18T06:24:27.509Z,8.47
2018-12-18T06:26:55.108Z,6.67
2018-12-18T06:29:22.625Z,4.80
2018-12-18T06:31:50.154Z,6.97
2018-12-18T06:34:17.684Z,4.42
2018-12-18T06:36:45.206Z,5.60
2018-12-18T06:39:12.882Z,6.40
2018-12-18T06:41:40.408Z,7.72
2018-12-18T06:44:07.917Z,9.43
2018-12-18T06:46:35.529Z,13.43
2018-12-18T06:49:03.044Z,9.07
2018-12-18T06:51:30.552Z,13.03
2018-12-18T06:53:58.117Z,22.10
2018-12-18T06:56:25.639Z,17.77
2018-12-18T06:58:53.177Z,23.87
2018-12-18T07:01:20.941Z,21.97
2018-12-18T07:03:48.437Z,14.10
2018-12-18T07:06:16.211Z,12.57
2018-12-18T07:08:43.743Z,15.43
2018-12-18T07:11:11.275Z,17.15
2018-12-18T07:13:38.797Z,13.50
2018-12-18T07:16:06.311Z,8.57
2018-12-18T07:18:33.837Z,15.93
2018-12-18T07:21:01.430Z,9.10
2018-12-18T07:23:28.945Z,8.10
2018-12-18T07:25:56.561Z,11.53
2018-12-18T07:28:24.069Z,8.37
2018-12-18T07:30:51.631Z,7.27
2018-12-18T07:33:19.173Z,8.47
2018-12-18T07:35:46.685Z,8.90
2018-12-18T07:38:14.213Z,9.30
2018-12-18T07:40:41.732Z,13.57
2018-12-18T07:45:33.557Z,13.30
2018-12-18T07:48:01.100Z,15.20
2018-12-18T07:50:28.728Z,11.63
2018-12-18T07:52:56.708Z,12.43
2018-12-18T07:55:24.240Z,11.68
2018-12-18T07:57:52.038Z,14.90
2018-12-18T08:00:19.552Z,18.53
2018-12-18T08:02:47.107Z,21.40
2018-12-18T08:05:14.624Z,16.20
2018-12-18T08:07:42.197Z,16.70
2018-12-18T08:10:10.064Z,21.73
2018-12-18T08:12:37.574Z,17.60
2018-12-18T08:15:06.441Z,18.85
2018-12-18T08:17:34.201Z,20.60
2018-12-18T08:22:22.671Z,13.37
2018-12-18T08:24:50.187Z,7.47
2018-12-18T08:27:17.686Z,7.10
2018-12-18T08:29:45.197Z,6.53
2018-12-18T08:32:12.780Z,9.07
2018-12-18T08:34:40.304Z,8.57
2018-12-18T08:37:07.806Z,9.33
2018-12-18T08:39:35.319Z,9.83
2018-12-18T08:42:02.901Z,6.13
2018-12-18T08:44:30.459Z,10.27
2018-12-18T08:46:57.960Z,7.00
2018-12-18T08:49:25.479Z,6.67
2018-12-18T08:51:53.079Z,8.53
2018-12-18T08:54:20.703Z,8.03
2018-12-18T08:56:48.249Z,6.67
2018-12-18T08:59:15.783Z,5.72
2018-12-18T09:01:43.298Z,7.47
2018-12-18T09:04:10.824Z,7.87
2018-12-18T09:06:38.335Z,6.63
2018-12-18T09:09:07.036Z,7.87
2018-12-18T09:14:08.022Z,8.07
2018-12-18T09:16:41.359Z,12.35
2018-12-18T09:19:08.863Z,7.43
2018-12-18T09:21:36.391Z,6.50
2018-12-18T09:24:03.965Z,8.13
2018-12-18T09:26:31.464Z,4.97
2018-12-18T09:28:58.970Z,6.27
2018-12-18T09:31:26.482Z,7.10
2018-12-18T09:33:53.982Z,6.43
2018-12-18T09:36:21.506Z,6.57
2018-12-18T09:38:57.624Z,7.78
2018-12-18T09:41:25.325Z,5.50
2018-12-18T09:43:58.474Z,6.73
2018-12-18T09:46:26.240Z,5.97
2018-12-18T09:48:54.028Z,7.45
2018-12-18T09:51:21.536Z,5.80
2018-12-18T09:53:49.056Z,7.87
2018-12-18T09:56:16.571Z,9.00
2018-12-18T09:58:44.114Z,4.33
2018-12-18T10:01:11.688Z,4.50
2018-12-18T10:03:39.226Z,6.20
2018-12-18T10:06:06.756Z,5.42
2018-12-18T10:08:34.271Z,4.20
2018-12-18T10:11:02.020Z,10.60
2018-12-18T10:13:29.534Z,3.60
2018-12-18T10:15:57.095Z,7.40
2018-12-18T10:18:24.595Z,6.27
2018-12-18T10:20:52.178Z,4.70
2018-12-18T10:23:19.801Z,4.07
2018-12-18T10:25:47.319Z,3.90
2018-12-18T10:28:14.815Z,4.93
2018-12-18T10:30:42.433Z,4.50
2018-12-18T10:33:10.102Z,6.80
2018-12-18T10:35:37.765Z,3.30
2018-12-18T10:38:05.286Z,2.73
2018-12-18T10:40:32.894Z,4.00
2018-12-18T10:43:00.403Z,6.77
2018-12-18T10:45:28.952Z,5.63
2018-12-18T10:47:56.464Z,4.13
2018-12-18T10:50:24.078Z,3.60
2018-12-18T10:52:51.583Z,6.70
2018-12-18T10:55:19.104Z,4.23
2018-12-18T10:57:46.676Z,3.90
2018-12-18T11:00:16.183Z,15.70
2018-12-18T11:02:43.735Z,5.20
2018-12-18T11:05:11.397Z,4.42
2018-12-18T11:07:38.979Z,4.90
2018-12-18T11:10:06.639Z,6.67
2018-12-18T11:12:38.859Z,6.10
2018-12-18T11:15:06.996Z,5.93
2018-12-18T11:17:34.511Z,5.13
2018-12-18T11:20:02.040Z,5.10
2018-12-18T11:22:29.581Z,6.73
2018-12-18T11:24:57.103Z,45.37
2018-12-18T11:27:24.695Z,9.17
2018-12-18T11:29:52.218Z,3.20
2018-12-18T11:32:19.731Z,4.87
2018-12-18T11:34:47.608Z,7.22
2018-12-18T11:37:15.137Z,6.27
2018-12-18T11:39:42.738Z,5.10
2018-12-18T11:42:10.262Z,2.90
2018-12-18T11:44:37.867Z,3.67
2018-12-18T11:47:05.390Z,10.00
2018-12-18T11:49:32.895Z,3.87
2018-12-18T11:52:00.435Z,4.53
2018-12-18T11:54:27.954Z,6.70
2018-12-18T11:56:55.589Z,4.73
2018-12-18T11:59:23.093Z,3.63
2018-12-18T12:01:50.717Z,3.50
2018-12-18T12:04:18.284Z,2.77
2018-12-18T12:06:45.789Z,2.30
2018-12-18T12:09:13.410Z,2.17
2018-12-18T12:11:40.919Z,1.83
2018-12-18T12:14:08.437Z,1.63
2018-12-18T12:16:36.023Z,2.35
2018-12-18T12:19:03.533Z,2.67
2018-12-18T12:21:31.337Z,2.77
2018-12-18T12:23:58.848Z,3.23
2018-12-18T12:26:33.374Z,2.57
2018-12-18T12:29:01.004Z,2.70
2018-12-18T12:31:28.521Z,4.03
2018-12-18T12:33:56.036Z,2.70
2018-12-18T12:36:29.436Z,12.40
2018-12-18T12:38:53.496Z,7.87
2018-12-18T12:41:21.276Z,7.50
2018-12-18T12:43:48.838Z,6.05
2018-12-18T12:46:16.346Z,5.93
2018-12-18T12:48:49.586Z,4.70
2018-12-18T12:51:17.362Z,12.07
2018-12-18T12:53:45.338Z,4.43
2018-12-18T12:56:12.846Z,8.00
2018-12-18T12:58:40.366Z,7.47
2018-12-18T13:01:08.250Z,5.12
2018-12-18T13:03:35.778Z,9.13
2018-12-18T13:06:03.551Z,2.93
2018-12-18T13:08:31.065Z,3.00
2018-12-18T13:10:58.588Z,7.03
2018-12-18T13:13:26.098Z,2.53
2018-12-18T13:15:53.935Z,3.20
2018-12-18T13:18:21.444Z,2.60
2018-12-18T13:20:49.067Z,1.77
2018-12-18T13:23:16.575Z,3.17
2018-12-18T13:25:44.092Z,6.67
2018-12-18T13:28:11.863Z,12.27
2018-12-18T13:30:39.397Z,20.27
2018-12-18T13:33:06.928Z,16.80
2018-12-18T13:35:34.479Z,23.37
2018-12-18T13:38:02.075Z,13.40
2018-12-18T13:40:29.596Z,14.43
2018-12-18T13:42:57.178Z,9.73
2018-12-18T13:45:24.689Z,6.47
2018-12-18T13:47:52.209Z,8.50
2018-12-18T13:50:19.728Z,8.47
2018-12-18T13:52:47.263Z,8.63
2018-12-18T13:55:14.778Z,9.10
2018-12-18T13:57:42.307Z,6.37
2018-12-18T14:00:09.886Z,6.10
2018-12-18T14:02:37.435Z,13.88
2018-12-18T14:05:05.630Z,8.50
2018-12-18T14:07:33.130Z,8.95
2018-12-18T14:10:00.689Z,7.57
2018-12-18T14:12:28.287Z,7.55
2018-12-18T14:14:55.886Z,5.20
2018-12-18T14:17:23.409Z,9.70
2018-12-18T14:19:51.018Z,9.90
2018-12-18T14:22:18.546Z,6.93
2018-12-18T14:24:46.063Z,7.53
2018-12-18T14:27:13.580Z,8.17
2018-12-18T14:29:41.107Z,9.08
2018-12-18T14:32:08.627Z,8.53
2018-12-18T14:34:36.137Z,5.70
2018-12-18T14:37:03.637Z,7.43
2018-12-18T14:39:31.421Z,7.53
2018-12-18T14:41:58.935Z,10.57
2018-12-18T14:44:26.449Z,8.13
2018-12-18T14:46:53.964Z,21.97
2018-12-18T14:49:21.507Z,17.40
2018-12-18T14:51:49.035Z,10.80
2018-12-18T14:54:16.916Z,12.30
2018-12-18T14:56:44.457Z,26.27
2018-12-18T14:59:11.978Z,12.80
2018-12-18T15:01:39.492Z,7.33
2018-12-18T15:04:07.015Z,7.57
2018-12-18T15:06:34.666Z,6.87
2018-12-18T15:09:02.254Z,6.07
2018-12-18T15:11:29.877Z,8.63
2018-12-18T15:13:57.380Z,6.13
2018-12-18T15:16:24.904Z,5.23
2018-12-18T15:18:52.434Z,25.53
2018-12-18T15:21:20.863Z,8.07
2018-12-18T15:23:48.381Z,5.20
2018-12-18T15:26:15.903Z,7.47
2018-12-18T15:28:43.429Z,6.50
2018-12-18T15:31:10.944Z,9.50
2018-12-18T15:33:38.441Z,9.00
2018-12-18T15:36:06.267Z,7.80
2018-12-18T15:38:33.783Z,7.70
2018-12-18T15:41:01.573Z,19.53
2018-12-18T15:43:29.092Z,39.57
2018-12-18T15:45:56.616Z,27.23
2018-12-18T15:48:24.133Z,19.20
2018-12-18T15:50:51.666Z,21.90
2018-12-18T15:53:19.192Z,38.37
2018-12-18T15:55:46.696Z,15.47
2018-12-18T15:58:14.200Z,9.67
2018-12-18T16:00:41.712Z,7.97
2018-12-18T16:03:09.450Z,10.27
2018-12-18T16:05:36.951Z,7.07
2018-12-18T16:08:04.478Z,10.00
2018-12-18T16:10:31.999Z,8.63
2018-12-18T16:12:59.609Z,7.20
2018-12-18T16:15:27.125Z,7.33
2018-12-18T16:17:54.641Z,10.77
2018-12-18T16:20:22.151Z,11.33
2018-12-18T16:22:49.710Z,16.47
2018-12-18T16:25:17.225Z,9.15
2018-12-18T16:27:44.946Z,11.70
2018-12-18T16:30:12.651Z,9.60
2018-12-18T16:32:40.438Z,7.20
2018-12-18T16:35:07.968Z,8.83
2018-12-18T16:37:35.479Z,8.63
2018-12-18T16:40:03.381Z,10.27
2018-12-18T16:42:30.907Z,6.97
2018-12-18T16:44:58.441Z,7.73
2018-12-18T16:47:26.077Z,6.47
2018-12-18T16:49:53.613Z,7.60
2018-12-18T16:52:21.145Z,7.72
2018-12-18T16:54:48.664Z,6.73
2018-12-18T16:57:16.181Z,9.00
2018-12-18T16:59:43.683Z,7.30
2018-12-18T17:02:11.202Z,13.98
2018-12-18T17:04:38.732Z,7.23
2018-12-18T17:07:06.440Z,6.20
2018-12-18T17:09:33.953Z,9.17
2018-12-18T17:12:01.495Z,5.62
2018-12-18T17:14:29.136Z,9.43
2018-12-18T17:16:56.665Z,6.07
2018-12-18T17:19:24.339Z,9.90
2018-12-18T17:21:51.933Z,5.33
2018-12-18T17:24:19.449Z,4.70
2018-12-18T17:26:46.957Z,9.03
2018-12-18T17:29:14.532Z,9.13
2018-12-18T17:31:42.020Z,5.83
2018-12-18T17:34:09.556Z,6.07
2018-12-18T17:36:37.163Z,9.43
2018-12-18T17:39:06.903Z,7.47
2018-12-18T17:41:34.437Z,6.37
2018-12-18T17:44:02.217Z,5.27
2018-12-18T17:46:29.745Z,6.50
2018-12-18T17:48:57.266Z,8.50
2018-12-18T17:51:25.063Z,5.70
2018-12-18T17:53:52.575Z,7.07
2018-12-18T17:56:20.097Z,8.33
2018-12-18T17:58:47.633Z,9.47
2018-12-18T18:01:15.521Z,9.33
2018-12-18T18:03:43.093Z,8.43
2018-12-18T18:06:10.604Z,9.03
2018-12-18T18:08:38.219Z,8.03
2018-12-18T18:11:05.782Z,9.33
2018-12-18T18:13:33.347Z,17.07
2018-12-18T18:16:00.874Z,15.63
2018-12-18T18:18:28.387Z,9.23
2018-12-18T18:20:55.914Z,13.00
2018-12-18T18:23:23.435Z,13.60
2018-12-18T18:25:51.191Z,14.40
2018-12-18T18:28:18.727Z,10.50
2018-12-18T18:30:46.249Z,9.18
2018-12-18T18:33:13.778Z,10.53
2018-12-18T18:35:41.320Z,15.30
2018-12-18T18:38:08.852Z,8.50
2018-12-18T18:40:36.375Z,21.97
2018-12-18T18:43:03.913Z,24.73
2018-12-18T18:45:31.465Z,24.00
2018-12-18T18:47:59.047Z,18.63
2018-12-18T18:50:26.582Z,24.87
2018-12-18T18:52:54.128Z,37.50
2018-12-18T18:55:21.647Z,51.25
2018-12-18T18:57:49.175Z,18.97
2018-12-18T19:00:16.732Z,15.97
2018-12-18T19:02:44.333Z,28.17
2018-12-18T19:05:11.863Z,25.23
2018-12-18T19:07:39.399Z,46.17
2018-12-18T19:10:07.288Z,23.43
2018-12-18T19:12:34.814Z,38.17
2018-12-18T19:15:02.418Z,46.37
2018-12-18T19:17:30.090Z,43.30
2018-12-18T19:19:57.623Z,53.53
2018-12-18T19:22:25.190Z,28.07
2018-12-18T19:24:52.738Z,30.80
2018-12-18T19:27:20.265Z,34.90
2018-12-18T19:29:47.821Z,23.00
2018-12-18T19:32:15.352Z,20.77
2018-12-18T19:34:43.205Z,20.00
2018-12-18T19:37:10.744Z,17.45
2018-12-18T19:39:38.541Z,20.60
2018-12-18T19:42:06.073Z,16.80
2018-12-18T19:44:33.674Z,20.10
2018-12-18T19:47:01.219Z,19.90
2018-12-18T19:49:28.743Z,14.13
2018-12-18T19:51:56.263Z,18.47
2018-12-18T19:54:23.789Z,21.20
2018-12-18T19:56:51.314Z,18.57
2018-12-18T19:59:18.858Z,19.53
2018-12-18T20:01:46.507Z,20.73
2018-12-18T20:04:14.065Z,16.62
2018-12-18T20:06:41.671Z,17.03
2018-12-18T20:09:09.202Z,31.42
2018-12-18T20:11:36.811Z,19.77
2018-12-18T20:14:04.440Z,19.90
2018-12-18T20:16:32.092Z,19.10
2018-12-18T20:18:59.695Z,17.83
2018-12-18T20:21:27.232Z,21.83
2018-12-18T20:23:54.796Z,22.73
2018-12-18T20:26:22.341Z,18.23
2018-12-18T20:28:49.875Z,21.67
2018-12-18T20:31:17.407Z,23.40
2018-12-18T20:33:45.154Z,22.40
2018-12-18T20:36:12.685Z,20.37
2018-12-18T20:38:40.282Z,22.80
2018-12-18T20:41:07.807Z,18.77
2018-12-18T20:43:35.383Z,19.73
2018-12-18T20:46:02.917Z,19.50
2018-12-18T20:48:30.452Z,19.03
2018-12-18T20:50:58.918Z,23.20
2018-12-18T20:53:26.460Z,17.17
2018-12-18T20:55:54.014Z,19.17
2018-12-18T20:58:21.541Z,19.47
2018-12-18T21:00:49.078Z,17.27
2018-12-18T21:03:16.600Z,16.73
2018-12-18T21:05:44.150Z,14.27
2018-12-18T21:08:12.078Z,17.87
2018-12-18T21:10:39.635Z,12.07
2018-12-18T21:13:12.879Z,14.07
2018-12-18T21:15:40.421Z,13.97
2018-12-18T21:18:07.953Z,14.50
2018-12-18T21:20:35.514Z,13.37
2018-12-18T21:23:03.040Z,14.90
2018-12-18T21:25:30.549Z,13.80
2018-12-18T21:27:58.117Z,12.30
2018-12-18T21:30:25.632Z,10.43
2018-12-18T21:32:53.152Z,9.53
2018-12-18T21:35:20.686Z,10.73
2018-12-18T21:37:48.226Z,13.10
2018-12-18T21:40:15.742Z,8.07
2018-12-18T21:42:43.269Z,11.47
2018-12-18T21:45:10.816Z,8.40
2018-12-18T21:47:38.437Z,8.83
2018-12-18T21:50:06.321Z,9.53
2018-12-18T21:52:33.874Z,10.47
2018-12-18T21:55:01.389Z,7.93
2018-12-18T21:57:29.397Z,9.17
2018-12-18T21:59:56.941Z,8.83
2018-12-18T22:02:24.457Z,7.07
2018-12-18T22:04:52.007Z,8.23
2018-12-18T22:07:19.530Z,7.77
2018-12-18T22:09:47.054Z,7.90
2018-12-18T22:12:14.577Z,7.77
2018-12-18T22:14:42.476Z,11.03
2018-12-18T22:17:10.007Z,10.78
2018-12-18T22:19:37.554Z,12.97
2018-12-18T22:22:05.082Z,12.35
2018-12-18T22:24:32.616Z,12.60
2018-12-18T22:27:00.125Z,11.70
2018-12-18T22:29:27.659Z,9.83
2018-12-18T22:31:55.198Z,14.23
2018-12-18T22:34:22.790Z,16.13
2018-12-18T22:36:50.302Z,14.77
2018-12-18T22:39:17.844Z,13.63
2018-12-18T22:41:45.398Z,16.93
2018-12-18T22:44:12.936Z,14.57
2018-12-18T22:46:40.479Z,13.33
2018-12-18T22:49:08.014Z,18.27
2018-12-18T22:51:35.551Z,12.00
2018-12-18T22:54:03.101Z,18.67
2018-12-18T22:56:30.611Z,11.90
2018-12-18T22:58:58.128Z,17.25
2018-12-18T23:01:31.432Z,15.90
2018-12-18T23:03:58.948Z,15.80
2018-12-18T23:06:27.137Z,17.60
2018-12-18T23:08:54.723Z,19.27
2018-12-18T23:11:22.520Z,13.27
2018-12-18T23:13:50.040Z,16.30
2018-12-18T23:16:17.558Z,15.23
2018-12-18T23:18:45.084Z,15.90
2018-12-18T23:21:12.668Z,15.53
2018-12-18T23:23:40.416Z,17.40
2018-12-18T23:26:07.929Z,16.57
2018-12-18T23:28:35.464Z,15.67
2018-12-18T23:31:02.971Z,20.00
2018-12-18T23:33:30.875Z,20.20
2018-12-18T23:35:58.389Z,18.50
2018-12-18T23:38:25.941Z,15.57
2018-12-18T23:40:53.471Z,15.26
2018-12-18T23:43:21.012Z,16.57
2018-12-18T23:45:48.546Z,19.25
2018-12-18T23:48:16.776Z,18.70
2018-12-18T23:50:44.306Z,19.07
2018-12-18T23:53:11.902Z,21.13
2018-12-18T23:55:39.467Z,22.35
2018-12-18T23:58:06.963Z,18.23
